createdAt,value
2022-12-15T00:00:09.973Z,0.00
2022-12-15T00:01:10.076Z,0.00
2022-12-15T00:02:09.925Z,0.00
2022-12-15T00:03:09.930Z,0.00
2022-12-15T00:04:09.805Z,0.00
2022-12-15T00:05:09.746Z,0.00
2022-12-15T00:06:09.751Z,0.00
2022-12-15T00:07:09.742Z,0.00
2022-12-15T00:08:09.634Z,0.00
2022-12-15T00:09:14.053Z,0.00
2022-12-15T00:10:09.547Z,0.00
2022-12-15T00:11:09.516Z,0.00
2022-12-15T00:12:09.467Z,0.00
2022-12-15T00:13:09.510Z,0.00
2022-12-15T00:14:09.370Z,0.00
2022-12-15T00:15:09.317Z,0.00
2022-12-15T00:16:09.311Z,0.00
2022-12-15T00:17:09.250Z,0.00
2022-12-15T00:18:09.189Z,0.00
2022-12-15T00:19:09.217Z,0.00
2022-12-15T00:20:09.130Z,0.00
2022-12-15T00:21:09.088Z,0.00
2022-12-15T00:22:09.026Z,0.00
2022-12-15T00:23:08.987Z,0.00
2022-12-15T00:24:08.946Z,0.00
2022-12-15T00:25:08.959Z,0.00
2022-12-15T00:26:08.871Z,0.00
2022-12-15T00:27:08.822Z,0.00
2022-12-15T00:28:08.775Z,0.00
2022-12-15T00:29:08.709Z,0.00
2022-12-15T00:30:08.666Z,0.00
2022-12-15T00:31:08.763Z,0.00
2022-12-15T00:32:08.598Z,0.00
2022-12-15T00:33:08.547Z,0.00
2022-12-15T00:34:08.495Z,0.00
2022-12-15T00:35:08.453Z,0.00
2022-12-15T00:36:08.399Z,0.00
2022-12-15T00:37:08.427Z,0.00
2022-12-15T00:38:08.338Z,0.00
2022-12-15T00:39:08.273Z,0.00
2022-12-15T00:40:08.218Z,0.00
2022-12-15T00:41:08.199Z,0.00
2022-12-15T00:42:08.324Z,0.00
2022-12-15T00:43:08.124Z,0.00
2022-12-15T00:44:08.051Z,0.00
2022-12-15T00:45:08.033Z,0.00
2022-12-15T00:46:08.025Z,0.00
2022-12-15T00:47:08.084Z,0.00
2022-12-15T00:48:07.900Z,0.00
2022-12-15T00:49:07.832Z,0.00
2022-12-15T00:50:07.789Z,0.00
2022-12-15T00:51:07.769Z,0.00
2022-12-15T00:52:07.699Z,0.00
2022-12-15T00:53:07.753Z,0.00
2022-12-15T00:54:08.993Z,0.00
2022-12-15T00:55:07.593Z,0.00
2022-12-15T00:56:07.546Z,0.00
2022-12-15T00:57:07.553Z,0.00
2022-12-15T00:58:07.471Z,0.00
2022-12-15T00:59:07.485Z,0.00
2022-12-15T01:00:07.407Z,0.00
2022-12-15T01:01:07.322Z,0.00
2022-12-15T01:02:07.400Z,0.00
2022-12-15T01:03:07.401Z,0.00
2022-12-15T01:04:07.229Z,0.00
2022-12-15T01:05:07.226Z,0.00
2022-12-15T01:06:07.142Z,0.00
2022-12-15T01:07:07.047Z,0.00
2022-12-15T01:08:06.999Z,0.00
2022-12-15T01:09:07.026Z,0.00
2022-12-15T01:10:06.919Z,0.00
2022-12-15T01:11:06.974Z,0.00
2022-12-15T01:12:06.831Z,0.00
2022-12-15T01:13:06.780Z,0.00
2022-12-15T01:14:06.760Z,0.00
2022-12-15T01:15:06.702Z,0.00
2022-12-15T01:16:06.755Z,0.00
2022-12-15T01:17:06.669Z,0.00
2022-12-15T01:18:06.601Z,0.00
2022-12-15T01:19:07.242Z,0.00
2022-12-15T01:20:06.501Z,0.00
2022-12-15T01:21:06.494Z,0.00
2022-12-15T01:22:06.387Z,0.00
2022-12-15T01:23:06.340Z,0.00
2022-12-15T01:24:06.300Z,0.00
2022-12-15T01:25:06.258Z,0.00
2022-12-15T01:26:06.297Z,0.00
2022-12-15T01:27:06.166Z,0.00
2022-12-15T01:28:06.126Z,0.00
2022-12-15T01:29:06.084Z,0.00
2022-12-15T01:30:06.043Z,0.00
2022-12-15T01:31:05.994Z,0.00
2022-12-15T01:32:06.027Z,0.00
2022-12-15T01:33:05.923Z,0.00
2022-12-15T01:34:05.877Z,0.00
2022-12-15T01:35:05.826Z,0.00
2022-12-15T01:36:05.772Z,0.00
2022-12-15T01:37:05.728Z,0.00
2022-12-15T01:38:05.752Z,0.00
2022-12-15T01:39:05.634Z,0.00
2022-12-15T01:40:05.609Z,0.00
2022-12-15T01:41:05.566Z,0.00
2022-12-15T01:42:05.500Z,0.00
2022-12-15T01:43:05.991Z,0.00
2022-12-15T01:44:05.512Z,0.00
2022-12-15T01:45:05.396Z,0.00
2022-12-15T01:46:05.354Z,0.00
2022-12-15T01:47:05.352Z,0.00
2022-12-15T01:48:05.271Z,0.00
2022-12-15T01:49:05.478Z,0.00
2022-12-15T01:50:05.165Z,0.00
2022-12-15T01:51:05.124Z,0.00
2022-12-15T01:52:05.114Z,0.00
2022-12-15T01:53:05.763Z,0.00
2022-12-15T01:54:05.084Z,0.00
2022-12-15T01:55:04.943Z,0.00
2022-12-15T01:56:04.928Z,0.00
2022-12-15T01:57:04.865Z,0.00
2022-12-15T01:58:04.833Z,0.00
2022-12-15T01:59:04.820Z,0.00
2022-12-15T02:00:04.795Z,0.00
2022-12-15T02:01:04.740Z,0.00
2022-12-15T02:02:04.775Z,0.00
2022-12-15T02:03:04.648Z,0.00
2022-12-15T02:04:04.592Z,0.00
2022-12-15T02:05:04.572Z,0.00
2022-12-15T02:06:04.450Z,0.00
2022-12-15T02:07:04.399Z,0.00
2022-12-15T02:08:04.373Z,0.00
2022-12-15T02:09:04.385Z,0.00
2022-12-15T02:10:04.347Z,0.00
2022-12-15T02:11:04.248Z,0.00
2022-12-15T02:12:04.194Z,0.00
2022-12-15T02:13:04.166Z,0.00
2022-12-15T02:14:04.178Z,0.00
2022-12-15T02:15:04.064Z,0.00
2022-12-15T02:16:04.064Z,0.00
2022-12-15T02:17:03.953Z,0.00
2022-12-15T02:18:03.920Z,0.00
2022-12-15T02:19:03.950Z,0.00
2022-12-15T02:20:03.848Z,0.00
2022-12-15T02:21:03.803Z,0.00
2022-12-15T02:22:03.738Z,0.00
2022-12-15T02:23:03.695Z,0.00
2022-12-15T02:24:03.693Z,0.00
2022-12-15T02:25:03.667Z,0.00
2022-12-15T02:26:03.564Z,0.00
2022-12-15T02:27:03.524Z,0.00
2022-12-15T02:28:03.494Z,0.00
2022-12-15T02:29:03.423Z,0.00
2022-12-15T02:30:03.420Z,0.00
2022-12-15T02:31:03.416Z,0.00
2022-12-15T02:32:03.426Z,0.00
2022-12-15T02:33:03.254Z,0.00
2022-12-15T02:34:03.207Z,0.00
2022-12-15T02:35:03.206Z,0.00
2022-12-15T02:36:03.139Z,0.00
2022-12-15T02:37:03.145Z,0.00
2022-12-15T02:38:03.031Z,0.00
2022-12-15T02:39:03.006Z,0.00
2022-12-15T02:40:03.049Z,0.00
2022-12-15T02:41:02.917Z,0.00
2022-12-15T02:42:02.848Z,0.00
2022-12-15T02:43:02.834Z,0.00
2022-12-15T02:44:02.771Z,0.00
2022-12-15T02:45:02.790Z,0.00
2022-12-15T02:46:02.765Z,0.00
2022-12-15T02:47:02.653Z,0.00
2022-12-15T02:48:02.594Z,0.00
2022-12-15T02:49:02.548Z,0.00
2022-12-15T02:50:02.504Z,0.00
2022-12-15T02:51:02.603Z,0.00
2022-12-15T02:52:02.423Z,0.00
2022-12-15T02:53:02.398Z,0.00
2022-12-15T02:54:02.347Z,0.00
2022-12-15T02:55:02.281Z,0.00
2022-12-15T02:56:02.322Z,0.00
2022-12-15T02:57:02.193Z,0.00
2022-12-15T02:58:02.150Z,0.00
2022-12-15T02:59:02.116Z,0.00
2022-12-15T03:00:02.094Z,0.00
2022-12-15T03:01:02.092Z,0.00
2022-12-15T03:02:02.215Z,0.00
2022-12-15T03:03:02.090Z,0.00
2022-12-15T03:04:01.894Z,0.00
2022-12-15T03:05:01.859Z,0.00
2022-12-15T03:06:01.807Z,0.00
2022-12-15T03:07:01.820Z,0.00
2022-12-15T03:08:01.732Z,0.00
2022-12-15T03:09:01.679Z,0.00
2022-12-15T03:10:01.628Z,0.00
2022-12-15T03:11:01.610Z,0.00
2022-12-15T03:12:01.553Z,0.00
2022-12-15T03:13:01.573Z,0.00
2022-12-15T03:14:01.458Z,0.00
2022-12-15T03:15:01.433Z,0.00
2022-12-15T03:16:01.425Z,0.00
2022-12-15T03:17:01.453Z,0.00
2022-12-15T03:18:01.389Z,0.00
2022-12-15T03:19:01.263Z,0.00
2022-12-15T03:20:01.187Z,0.00
2022-12-15T03:21:01.151Z,0.00
2022-12-15T03:22:01.113Z,0.00
2022-12-15T03:23:01.145Z,0.00
2022-12-15T03:24:01.041Z,0.00
2022-12-15T03:25:00.979Z,0.00
2022-12-15T03:26:00.940Z,0.00
2022-12-15T03:27:00.921Z,0.00
2022-12-15T03:28:00.843Z,0.00
2022-12-15T03:29:00.861Z,0.00
2022-12-15T03:30:00.786Z,0.00
2022-12-15T03:31:00.723Z,0.00
2022-12-15T03:32:00.752Z,0.00
2022-12-15T03:33:00.631Z,0.00
2022-12-15T03:34:00.591Z,0.00
2022-12-15T03:35:00.956Z,0.00
2022-12-15T03:36:00.518Z,0.00
2022-12-15T03:37:00.491Z,0.00
2022-12-15T03:38:00.430Z,0.00
2022-12-15T03:39:00.380Z,0.00
2022-12-15T03:40:00.413Z,0.00
2022-12-15T03:41:00.293Z,0.00
2022-12-15T03:42:00.252Z,0.00
2022-12-15T03:43:00.249Z,0.00
2022-12-15T03:44:00.180Z,0.00
2022-12-15T03:45:00.119Z,0.00
2022-12-15T03:46:00.167Z,0.00
2022-12-15T03:47:03.578Z,0.00
2022-12-15T03:48:00.002Z,0.00
2022-12-15T03:48:59.947Z,0.00
2022-12-15T03:49:59.924Z,0.00
2022-12-15T03:50:59.867Z,0.00
2022-12-15T03:51:59.884Z,0.00
2022-12-15T03:52:59.779Z,0.00
2022-12-15T03:53:59.739Z,0.00
2022-12-15T03:54:59.699Z,0.00
2022-12-15T03:55:59.650Z,0.00
2022-12-15T03:56:59.608Z,0.00
2022-12-15T03:58:00.384Z,0.00
2022-12-15T03:58:59.527Z,0.00
2022-12-15T03:59:59.475Z,0.00
2022-12-15T04:00:59.504Z,0.00
2022-12-15T04:01:59.698Z,0.00
2022-12-15T04:02:59.489Z,0.00
2022-12-15T04:04:01.172Z,0.00
2022-12-15T04:04:59.277Z,0.00
2022-12-15T04:05:59.232Z,0.00
2022-12-15T04:06:59.202Z,0.00
2022-12-15T04:07:59.191Z,0.00
2022-12-15T04:08:59.158Z,0.00
2022-12-15T04:09:59.070Z,0.00
2022-12-15T04:10:59.025Z,0.00
2022-12-15T04:11:58.966Z,0.00
2022-12-15T04:12:58.921Z,0.00
2022-12-15T04:13:58.952Z,0.00
2022-12-15T04:14:58.861Z,0.00
2022-12-15T04:15:58.793Z,0.00
2022-12-15T04:16:58.826Z,0.00
2022-12-15T04:17:58.725Z,0.00
2022-12-15T04:18:58.752Z,0.00
2022-12-15T04:19:58.635Z,0.00
2022-12-15T04:20:58.594Z,0.00
2022-12-15T04:21:58.559Z,0.00
2022-12-15T04:22:58.501Z,0.00
2022-12-15T04:23:58.455Z,0.00
2022-12-15T04:24:58.484Z,0.00
2022-12-15T04:25:58.398Z,0.00
2022-12-15T04:26:58.330Z,0.00
2022-12-15T04:28:01.497Z,0.00
2022-12-15T04:28:58.262Z,0.00
2022-12-15T04:29:58.201Z,0.00
2022-12-15T04:30:58.332Z,0.00
2022-12-15T04:31:58.139Z,0.00
2022-12-15T04:32:58.079Z,0.00
2022-12-15T04:33:58.030Z,0.00
2022-12-15T04:34:58.016Z,0.00
2022-12-15T04:35:58.018Z,0.00
2022-12-15T04:36:57.943Z,0.00
2022-12-15T04:37:57.873Z,0.00
2022-12-15T04:38:57.824Z,0.00
2022-12-15T04:39:57.798Z,0.00
2022-12-15T04:40:57.743Z,0.00
2022-12-15T04:41:57.804Z,0.00
2022-12-15T04:42:57.671Z,0.00
2022-12-15T04:43:57.615Z,0.00
2022-12-15T04:44:57.589Z,0.00
2022-12-15T04:45:57.561Z,0.00
2022-12-15T04:46:57.476Z,0.00
2022-12-15T04:47:57.504Z,0.00
2022-12-15T04:48:57.406Z,0.00
2022-12-15T04:49:57.366Z,0.00
2022-12-15T04:50:57.321Z,0.00
2022-12-15T04:51:57.292Z,0.00
2022-12-15T04:52:57.320Z,0.00
2022-12-15T04:53:57.194Z,0.00
2022-12-15T04:54:57.142Z,0.00
2022-12-15T04:55:57.098Z,0.00
2022-12-15T04:56:57.079Z,0.00
2022-12-15T04:57:57.022Z,0.00
2022-12-15T04:58:57.074Z,0.00
2022-12-15T04:59:56.942Z,0.00
2022-12-15T05:00:56.930Z,0.00
2022-12-15T05:01:56.957Z,0.00
2022-12-15T05:02:56.818Z,0.00
2022-12-15T05:03:56.816Z,0.00
2022-12-15T05:04:56.800Z,0.00
2022-12-15T05:05:56.682Z,0.00
2022-12-15T05:06:56.644Z,0.00
2022-12-15T05:07:56.590Z,0.00
2022-12-15T05:08:56.561Z,0.00
2022-12-15T05:10:02.602Z,0.00
2022-12-15T05:10:56.466Z,0.00
2022-12-15T05:11:56.420Z,0.00
2022-12-15T05:12:56.380Z,0.00
2022-12-15T05:13:56.337Z,0.00
2022-12-15T05:14:56.382Z,0.00
2022-12-15T05:15:56.309Z,0.00
2022-12-15T05:16:56.240Z,0.00
2022-12-15T05:17:56.168Z,0.00
2022-12-15T05:18:56.131Z,0.00
2022-12-15T05:19:56.089Z,0.00
2022-12-15T05:20:56.092Z,0.00
2022-12-15T05:21:55.999Z,0.00
2022-12-15T05:22:55.973Z,0.00
2022-12-15T05:23:55.916Z,0.00
2022-12-15T05:24:55.878Z,0.00
2022-12-15T05:25:55.894Z,0.00
2022-12-15T05:26:55.799Z,0.00
2022-12-15T05:27:55.745Z,0.00
2022-12-15T05:28:55.704Z,0.00
2022-12-15T05:29:55.658Z,0.00
2022-12-15T05:30:55.635Z,0.00
2022-12-15T05:31:55.636Z,0.00
2022-12-15T05:32:55.525Z,0.00
2022-12-15T05:33:59.578Z,0.00
2022-12-15T05:34:55.450Z,0.00
2022-12-15T05:35:55.397Z,0.00
2022-12-15T05:36:55.358Z,0.00
2022-12-15T05:37:55.382Z,0.00
2022-12-15T05:38:55.290Z,0.00
2022-12-15T05:39:55.264Z,0.00
2022-12-15T05:40:55.192Z,0.00
2022-12-15T05:41:55.139Z,0.00
2022-12-15T05:42:55.104Z,0.00
2022-12-15T05:43:55.281Z,0.00
2022-12-15T05:44:55.011Z,0.00
2022-12-15T05:45:55.028Z,0.00
2022-12-15T05:46:54.927Z,0.00
2022-12-15T05:47:54.896Z,0.00
2022-12-15T05:48:54.897Z,0.00
2022-12-15T05:49:54.864Z,0.00
2022-12-15T05:50:54.752Z,0.00
2022-12-15T05:51:54.704Z,0.00
2022-12-15T05:52:54.670Z,0.00
2022-12-15T05:53:54.622Z,0.00
2022-12-15T05:54:54.638Z,0.00
2022-12-15T05:55:54.535Z,0.00
2022-12-15T05:56:54.489Z,0.00
2022-12-15T05:57:54.454Z,0.00
2022-12-15T05:58:54.403Z,0.00
2022-12-15T05:59:54.417Z,0.00
2022-12-15T06:01:02.384Z,0.00
2022-12-15T06:01:54.367Z,0.00
2022-12-15T06:02:54.278Z,0.00
2022-12-15T06:03:54.190Z,0.00
2022-12-15T06:04:54.284Z,0.00
2022-12-15T06:05:56.616Z,0.00
2022-12-15T06:06:54.060Z,0.00
2022-12-15T06:07:54.022Z,0.00
2022-12-15T06:08:53.977Z,0.00
2022-12-15T06:09:53.926Z,0.00
2022-12-15T06:10:53.956Z,0.00
2022-12-15T06:11:53.842Z,0.00
2022-12-15T06:12:53.839Z,0.00
2022-12-15T06:13:53.752Z,0.00
2022-12-15T06:14:53.704Z,0.00
2022-12-15T06:15:53.717Z,0.00
2022-12-15T06:16:53.832Z,0.00
2022-12-15T06:17:53.586Z,0.00
2022-12-15T06:18:53.549Z,0.00
2022-12-15T06:19:53.501Z,0.00
2022-12-15T06:20:53.459Z,0.00
2022-12-15T06:21:53.468Z,0.00
2022-12-15T06:22:53.366Z,0.00
2022-12-15T06:23:53.327Z,0.00
2022-12-15T06:24:53.271Z,0.00
2022-12-15T06:25:53.234Z,0.00
2022-12-15T06:26:53.242Z,0.00
2022-12-15T06:27:58.378Z,0.00
2022-12-15T06:28:53.099Z,0.00
2022-12-15T06:29:53.051Z,0.00
2022-12-15T06:30:53.033Z,0.00
2022-12-15T06:31:53.016Z,0.00
2022-12-15T06:32:52.979Z,0.00
2022-12-15T06:33:59.208Z,0.00
2022-12-15T06:34:52.846Z,0.00
2022-12-15T06:35:53.273Z,0.00
2022-12-15T06:36:52.750Z,0.00
2022-12-15T06:37:52.722Z,0.00
2022-12-15T06:38:52.723Z,0.00
2022-12-15T06:39:52.884Z,0.00
2022-12-15T06:40:52.581Z,0.00
2022-12-15T06:41:52.636Z,0.00
2022-12-15T06:42:52.486Z,0.00
2022-12-15T06:43:52.449Z,0.00
2022-12-15T06:44:52.408Z,0.00
2022-12-15T06:45:52.368Z,0.00
2022-12-15T06:46:52.377Z,0.00
2022-12-15T06:47:55.349Z,0.00
2022-12-15T06:48:52.227Z,0.00
2022-12-15T06:49:52.176Z,0.00
2022-12-15T06:50:52.146Z,0.00
2022-12-15T06:51:52.130Z,0.00
2022-12-15T06:52:52.076Z,0.00
2022-12-15T06:53:52.067Z,0.00
2022-12-15T06:54:51.983Z,0.00
2022-12-15T06:55:51.934Z,0.00
2022-12-15T06:56:51.980Z,0.00
2022-12-15T06:57:51.844Z,0.00
2022-12-15T06:58:53.274Z,0.00
2022-12-15T06:59:51.796Z,0.00
2022-12-15T07:00:51.728Z,0.00
2022-12-15T07:01:51.831Z,5.63
2022-12-15T07:02:51.776Z,5.63
2022-12-15T07:03:51.817Z,5.63
2022-12-15T07:04:51.622Z,5.63
2022-12-15T07:05:51.482Z,5.63
2022-12-15T07:06:51.454Z,5.63
2022-12-15T07:07:51.397Z,5.63
2022-12-15T07:08:51.356Z,5.63
2022-12-15T07:09:51.305Z,11.25
2022-12-15T07:10:51.328Z,11.25
2022-12-15T07:11:51.225Z,11.25
2022-12-15T07:12:51.177Z,11.25
2022-12-15T07:13:51.137Z,11.25
2022-12-15T07:14:53.520Z,11.25
2022-12-15T07:15:51.071Z,16.88
2022-12-15T07:16:51.045Z,16.88
2022-12-15T07:17:50.954Z,16.88
2022-12-15T07:18:50.913Z,16.88
2022-12-15T07:19:50.872Z,16.88
2022-12-15T07:20:50.830Z,22.50
2022-12-15T07:21:50.854Z,22.50
2022-12-15T07:22:50.872Z,22.50
2022-12-15T07:23:55.891Z,22.50
2022-12-15T07:24:50.651Z,22.50
2022-12-15T07:25:50.609Z,28.13
2022-12-15T07:26:50.569Z,28.13
2022-12-15T07:27:50.583Z,28.13
2022-12-15T07:28:50.477Z,28.13
2022-12-15T07:29:50.490Z,33.75
2022-12-15T07:30:50.408Z,33.75
2022-12-15T07:31:50.370Z,33.75
2022-12-15T07:32:50.554Z,33.75
2022-12-15T07:33:50.254Z,39.38
2022-12-15T07:34:50.283Z,39.38
2022-12-15T07:35:50.240Z,39.38
2022-12-15T07:36:52.375Z,39.38
2022-12-15T07:37:50.087Z,45.00
2022-12-15T07:38:51.246Z,45.00
2022-12-15T07:39:50.054Z,45.00
2022-12-15T07:40:49.959Z,45.00
2022-12-15T07:41:49.909Z,45.00
2022-12-15T07:42:49.863Z,50.63
2022-12-15T07:43:49.819Z,50.63
2022-12-15T07:44:50.001Z,50.63
2022-12-15T07:45:51.654Z,50.63
2022-12-15T07:46:49.693Z,56.25
2022-12-15T07:47:49.655Z,56.25
2022-12-15T07:48:50.850Z,56.25
2022-12-15T07:49:49.562Z,56.25
2022-12-15T07:50:50.378Z,61.88
2022-12-15T07:51:49.537Z,61.88
2022-12-15T07:52:49.436Z,61.88
2022-12-15T07:53:49.386Z,61.88
2022-12-15T07:54:49.338Z,61.88
2022-12-15T07:56:06.886Z,67.50
2022-12-15T07:56:50.462Z,67.50
2022-12-15T07:57:49.264Z,67.50
2022-12-15T07:58:49.226Z,67.50
2022-12-15T07:59:49.111Z,73.13
2022-12-15T08:00:49.245Z,73.13
2022-12-15T08:01:49.226Z,73.13
2022-12-15T08:02:49.994Z,73.13
2022-12-15T08:03:49.028Z,73.13
2022-12-15T08:04:48.958Z,78.75
2022-12-15T08:05:49.417Z,78.75
2022-12-15T08:06:48.816Z,78.75
2022-12-15T08:07:49.338Z,78.75
2022-12-15T08:08:50.777Z,78.75
2022-12-15T08:09:49.388Z,84.38
2022-12-15T08:10:48.649Z,84.38
2022-12-15T08:11:49.277Z,84.38
2022-12-15T08:12:48.555Z,84.38
2022-12-15T08:14:05.714Z,84.38
2022-12-15T08:14:50.028Z,84.38
2022-12-15T08:15:48.479Z,90.00
2022-12-15T08:16:48.459Z,90.00
2022-12-15T08:17:48.331Z,90.00
2022-12-15T08:18:48.285Z,90.00
2022-12-15T08:19:48.254Z,90.00
2022-12-15T08:20:50.140Z,95.63
2022-12-15T08:21:48.236Z,95.63
2022-12-15T08:22:48.132Z,95.63
2022-12-15T08:23:48.109Z,95.63
2022-12-15T08:24:48.087Z,95.63
2022-12-15T08:25:47.983Z,95.63
2022-12-15T08:26:50.405Z,101.25
2022-12-15T08:27:47.949Z,101.25
2022-12-15T08:28:47.861Z,101.25
2022-12-15T08:29:51.182Z,101.25
2022-12-15T08:30:47.764Z,101.25
2022-12-15T08:31:47.771Z,101.25
2022-12-15T08:32:51.909Z,101.25
2022-12-15T08:33:47.694Z,106.88
2022-12-15T08:34:47.597Z,106.88
2022-12-15T08:35:56.872Z,106.88
2022-12-15T08:36:47.510Z,106.88
2022-12-15T08:37:47.466Z,106.88
2022-12-15T08:38:47.430Z,106.88
2022-12-15T08:39:47.431Z,112.50
2022-12-15T08:40:47.344Z,112.50
2022-12-15T08:41:47.293Z,112.50
2022-12-15T08:42:47.312Z,112.50
2022-12-15T08:43:49.037Z,112.50
2022-12-15T08:44:47.172Z,112.50
2022-12-15T08:45:47.182Z,112.50
2022-12-15T08:46:47.079Z,118.13
2022-12-15T08:47:47.046Z,118.13
2022-12-15T08:48:47.076Z,118.13
2022-12-15T08:49:46.966Z,118.13
2022-12-15T08:50:47.377Z,118.13
2022-12-15T08:51:46.875Z,118.13
2022-12-15T08:53:06.691Z,118.13
2022-12-15T08:53:47.108Z,118.13
2022-12-15T08:54:46.798Z,118.13
2022-12-15T08:55:46.701Z,123.75
2022-12-15T08:56:46.676Z,123.75
2022-12-15T08:57:46.607Z,123.75
2022-12-15T08:58:46.568Z,123.75
2022-12-15T08:59:46.580Z,123.75
2022-12-15T09:00:46.519Z,123.75
2022-12-15T09:01:46.533Z,123.75
2022-12-15T09:02:46.439Z,129.38
2022-12-15T09:03:46.359Z,129.38
2022-12-15T09:04:46.324Z,129.38
2022-12-15T09:05:46.341Z,129.38
2022-12-15T09:06:50.250Z,129.38
2022-12-15T09:07:46.191Z,129.38
2022-12-15T09:08:48.504Z,129.38
2022-12-15T09:09:46.104Z,129.38
2022-12-15T09:10:46.118Z,129.38
2022-12-15T09:11:46.071Z,129.38
2022-12-15T09:12:45.973Z,135.00
2022-12-15T09:13:45.931Z,135.00
2022-12-15T09:14:45.880Z,135.00
2022-12-15T09:16:09.021Z,135.00
2022-12-15T09:16:45.863Z,140.63
2022-12-15T09:17:45.956Z,151.88
2022-12-15T09:18:45.723Z,157.50
2022-12-15T09:19:45.715Z,168.75
2022-12-15T09:20:45.707Z,174.38
2022-12-15T09:21:45.688Z,174.38
2022-12-15T09:22:45.545Z,163.13
2022-12-15T09:23:45.546Z,163.13
2022-12-15T09:24:45.474Z,163.13
2022-12-15T09:25:45.464Z,163.13
2022-12-15T09:26:45.459Z,168.75
2022-12-15T09:27:45.336Z,174.38
2022-12-15T09:28:45.295Z,180.00
2022-12-15T09:29:45.245Z,180.00
2022-12-15T09:30:45.277Z,174.38
2022-12-15T09:31:45.184Z,157.50
2022-12-15T09:32:45.195Z,168.75
2022-12-15T09:33:45.091Z,174.38
2022-12-15T09:34:45.060Z,180.00
2022-12-15T09:35:45.024Z,174.38
2022-12-15T09:36:44.968Z,180.00
2022-12-15T09:37:51.431Z,180.00
2022-12-15T09:38:44.936Z,191.25
2022-12-15T09:39:44.835Z,185.63
2022-12-15T09:40:44.811Z,180.00
2022-12-15T09:41:44.759Z,163.13
2022-12-15T09:42:44.992Z,163.13
2022-12-15T09:43:47.382Z,157.50
2022-12-15T09:44:44.684Z,157.50
2022-12-15T09:45:44.617Z,157.50
2022-12-15T09:46:44.555Z,163.13
2022-12-15T09:47:44.516Z,168.75
2022-12-15T09:48:44.464Z,163.13
2022-12-15T09:49:44.429Z,163.13
2022-12-15T09:50:44.477Z,168.75
2022-12-15T09:51:44.345Z,174.38
2022-12-15T09:52:44.301Z,168.75
2022-12-15T09:54:00.047Z,168.75
2022-12-15T09:54:44.423Z,168.75
2022-12-15T09:55:44.177Z,180.00
2022-12-15T09:56:44.147Z,185.63
2022-12-15T09:57:44.095Z,191.25
2022-12-15T09:58:44.058Z,185.63
2022-12-15T09:59:44.074Z,185.63
2022-12-15T10:00:45.621Z,180.00
2022-12-15T10:01:44.057Z,180.00
2022-12-15T10:02:43.940Z,185.63
2022-12-15T10:03:43.965Z,196.88
2022-12-15T10:04:43.813Z,202.50
2022-12-15T10:06:07.450Z,202.50
2022-12-15T10:06:43.728Z,202.50
2022-12-15T10:07:43.694Z,202.50
2022-12-15T10:08:43.657Z,202.50
2022-12-15T10:09:43.613Z,202.50
2022-12-15T10:10:43.575Z,196.88
2022-12-15T10:11:43.597Z,191.25
2022-12-15T10:12:53.165Z,191.25
2022-12-15T10:13:43.454Z,196.88
2022-12-15T10:14:43.414Z,196.88
2022-12-15T10:15:43.432Z,196.88
2022-12-15T10:16:43.333Z,196.88
2022-12-15T10:17:43.331Z,208.13
2022-12-15T10:18:43.254Z,208.13
2022-12-15T10:19:43.201Z,208.13
2022-12-15T10:20:43.223Z,208.13
2022-12-15T10:21:43.144Z,202.50
2022-12-15T10:22:43.119Z,196.88
2022-12-15T10:23:43.811Z,191.25
2022-12-15T10:25:11.802Z,185.63
2022-12-15T10:25:43.025Z,174.38
2022-12-15T10:26:42.932Z,163.13
2022-12-15T10:27:42.904Z,157.50
2022-12-15T10:28:42.847Z,157.50
2022-12-15T10:29:42.879Z,157.50
2022-12-15T10:30:42.851Z,157.50
2022-12-15T10:31:42.738Z,157.50
2022-12-15T10:32:43.140Z,157.50
2022-12-15T10:34:42.681Z,157.50
2022-12-15T10:35:42.640Z,157.50
2022-12-15T10:36:42.535Z,157.50
2022-12-15T10:37:42.487Z,157.50
2022-12-15T10:38:42.500Z,157.50
2022-12-15T10:39:42.425Z,157.50
2022-12-15T10:41:42.467Z,157.50
2022-12-15T10:42:42.294Z,157.50
2022-12-15T10:43:42.283Z,157.50
2022-12-15T10:44:42.209Z,163.13
2022-12-15T10:45:42.172Z,163.13
2022-12-15T10:46:42.180Z,163.13
2022-12-15T10:47:42.150Z,163.13
2022-12-15T10:48:42.052Z,163.13
2022-12-15T10:49:42.003Z,163.13
2022-12-15T10:50:41.963Z,163.13
2022-12-15T10:51:41.936Z,163.13
2022-12-15T10:52:41.893Z,163.13
2022-12-15T10:53:41.935Z,163.13
2022-12-15T10:54:41.816Z,163.13
2022-12-15T10:55:41.812Z,163.13
2022-12-15T10:56:41.739Z,163.13
2022-12-15T10:57:42.292Z,163.13
2022-12-15T10:58:41.771Z,163.13
2022-12-15T10:59:41.653Z,163.13
2022-12-15T11:00:41.583Z,163.13
2022-12-15T11:01:41.727Z,157.50
2022-12-15T11:02:41.657Z,157.50
2022-12-15T11:03:42.015Z,157.50
2022-12-15T11:04:41.462Z,157.50
2022-12-15T11:05:41.445Z,157.50
2022-12-15T11:06:41.395Z,157.50
2022-12-15T11:07:41.300Z,163.13
2022-12-15T11:08:41.254Z,163.13
2022-12-15T11:09:41.204Z,163.13
2022-12-15T11:10:41.176Z,163.13
2022-12-15T11:11:45.279Z,163.13
2022-12-15T11:12:44.804Z,163.13
2022-12-15T11:13:41.328Z,163.13
2022-12-15T11:14:41.000Z,163.13
2022-12-15T11:15:41.043Z,163.13
2022-12-15T11:16:40.916Z,168.75
2022-12-15T11:17:40.887Z,163.13
2022-12-15T11:18:40.914Z,168.75
2022-12-15T11:19:40.790Z,174.38
2022-12-15T11:20:40.767Z,180.00
2022-12-15T11:21:40.728Z,191.25
2022-12-15T11:22:40.705Z,202.50
2022-12-15T11:23:46.689Z,208.13
2022-12-15T11:24:40.644Z,225.00
2022-12-15T11:25:40.633Z,230.63
2022-12-15T11:26:40.510Z,213.75
2022-12-15T11:27:40.478Z,208.13
2022-12-15T11:28:40.472Z,202.50
2022-12-15T11:29:42.575Z,202.50
2022-12-15T11:30:40.350Z,208.13
2022-12-15T11:31:40.311Z,202.50
2022-12-15T11:32:40.267Z,196.88
2022-12-15T11:33:40.255Z,196.88
2022-12-15T11:34:40.207Z,191.25
2022-12-15T11:35:40.223Z,185.63
2022-12-15T11:36:40.123Z,180.00
2022-12-15T11:37:40.148Z,168.75
2022-12-15T11:38:40.166Z,168.75
2022-12-15T11:39:40.928Z,157.50
2022-12-15T11:40:40.057Z,151.88
2022-12-15T11:41:39.936Z,151.88
2022-12-15T11:42:39.892Z,157.50
2022-12-15T11:43:39.837Z,157.50
2022-12-15T11:44:39.799Z,157.50
2022-12-15T11:45:39.925Z,157.50
2022-12-15T11:46:39.750Z,157.50
2022-12-15T11:47:39.680Z,157.50
2022-12-15T11:48:39.661Z,151.88
2022-12-15T11:49:41.492Z,151.88
2022-12-15T11:50:39.998Z,151.88
2022-12-15T11:51:39.522Z,151.88
2022-12-15T11:52:39.484Z,151.88
2022-12-15T11:53:39.444Z,151.88
2022-12-15T11:54:39.466Z,151.88
2022-12-15T11:55:41.455Z,151.88
2022-12-15T11:56:39.499Z,151.88
2022-12-15T11:57:39.281Z,151.88
2022-12-15T11:58:39.244Z,151.88
2022-12-15T11:59:39.211Z,151.88
2022-12-15T12:00:39.159Z,151.88
2022-12-15T12:01:55.508Z,151.88
2022-12-15T12:02:39.245Z,151.88
2022-12-15T12:03:39.822Z,151.88
2022-12-15T12:04:39.007Z,151.88
2022-12-15T12:05:39.096Z,151.88
2022-12-15T12:06:38.997Z,151.88
2022-12-15T12:07:42.162Z,151.88
2022-12-15T12:08:38.846Z,151.88
2022-12-15T12:09:38.827Z,146.25
2022-12-15T12:10:39.372Z,146.25
2022-12-15T12:11:38.739Z,146.25
2022-12-15T12:12:39.062Z,146.25
2022-12-15T12:13:38.677Z,146.25
2022-12-15T12:14:38.706Z,146.25
2022-12-15T12:15:38.656Z,146.25
2022-12-15T12:16:38.530Z,146.25
2022-12-15T12:17:38.497Z,146.25
2022-12-15T12:18:38.535Z,146.25
2022-12-15T12:19:38.462Z,146.25
2022-12-15T12:20:38.382Z,146.25
2022-12-15T12:21:38.365Z,146.25
2022-12-15T12:22:38.313Z,146.25
2022-12-15T12:23:38.249Z,146.25
2022-12-15T12:24:38.425Z,146.25
2022-12-15T12:25:38.289Z,146.25
2022-12-15T12:26:38.124Z,146.25
2022-12-15T12:27:38.099Z,140.63
2022-12-15T12:28:38.078Z,140.63
2022-12-15T12:29:38.029Z,140.63
2022-12-15T12:30:38.027Z,140.63
2022-12-15T12:31:37.955Z,140.63
2022-12-15T12:32:37.931Z,140.63
2022-12-15T12:33:37.931Z,140.63
2022-12-15T12:34:37.888Z,140.63
2022-12-15T12:35:37.836Z,140.63
2022-12-15T12:36:37.809Z,140.63
2022-12-15T12:37:37.761Z,140.63
2022-12-15T12:38:37.675Z,140.63
2022-12-15T12:39:37.607Z,140.63
2022-12-15T12:40:39.338Z,140.63
2022-12-15T12:41:37.560Z,140.63
2022-12-15T12:42:37.566Z,135.00
2022-12-15T12:43:37.557Z,135.00
2022-12-15T12:44:37.428Z,135.00
2022-12-15T12:45:37.376Z,135.00
2022-12-15T12:46:37.355Z,135.00
2022-12-15T12:47:37.389Z,135.00
2022-12-15T12:48:37.279Z,135.00
2022-12-15T12:49:37.207Z,135.00
2022-12-15T12:50:37.186Z,135.00
2022-12-15T12:51:37.144Z,135.00
2022-12-15T12:52:37.158Z,135.00
2022-12-15T12:53:37.115Z,135.00
2022-12-15T12:54:37.124Z,135.00
2022-12-15T12:55:37.001Z,129.38
2022-12-15T12:56:36.934Z,129.38
2022-12-15T12:57:36.963Z,129.38
2022-12-15T12:58:36.920Z,129.38